createdAt,value
2022-12-21T00:01:18.621Z,9.68
2022-12-21T00:03:46.262Z,9.72
2022-12-21T00:06:13.999Z,9.77
2022-12-21T00:08:45.864Z,9.74
2022-12-21T00:11:13.922Z,9.70
2022-12-21T00:13:42.657Z,9.69
2022-12-21T00:16:18.192Z,9.71
2022-12-21T00:18:45.341Z,9.68
2022-12-21T00:21:17.341Z,9.65
2022-12-21T00:23:45.433Z,9.66
2022-12-21T00:26:13.781Z,9.69
2022-12-21T00:28:40.925Z,9.68
2022-12-21T00:31:12.437Z,9.66
2022-12-21T00:33:40.191Z,9.63
2022-12-21T00:36:09.019Z,9.62
2022-12-21T00:38:35.711Z,9.66
2022-12-21T00:41:04.682Z,9.62
2022-12-21T00:43:33.395Z,9.65
2022-12-21T00:46:00.278Z,9.67
2022-12-21T00:48:28.392Z,9.61
2022-12-21T00:50:54.892Z,9.60
2022-12-21T00:53:21.638Z,9.54
2022-12-21T00:55:56.829Z,9.61
2022-12-21T00:58:24.811Z,9.54
2022-12-21T01:00:55.866Z,9.56
2022-12-21T01:03:23.747Z,9.56
2022-12-21T01:05:51.497Z,9.60
2022-12-21T01:08:19.957Z,9.57
2022-12-21T01:10:46.689Z,9.56
2022-12-21T01:13:14.010Z,9.52
2022-12-21T01:15:42.149Z,9.52
2022-12-21T01:18:09.655Z,9.47
2022-12-21T01:20:41.430Z,9.49
2022-12-21T01:23:08.508Z,9.48
2022-12-21T01:25:36.422Z,9.50
2022-12-21T01:28:03.788Z,9.52
2022-12-21T01:30:30.267Z,9.50
2022-12-21T01:32:56.620Z,9.52
2022-12-21T01:35:23.262Z,9.48
2022-12-21T01:37:49.607Z,9.48
2022-12-21T01:40:15.992Z,9.43
2022-12-21T01:42:42.323Z,9.41
2022-12-21T01:45:30.184Z,9.42
2022-12-21T01:48:04.390Z,9.34
2022-12-21T01:50:35.898Z,9.40
2022-12-21T01:53:08.281Z,9.37
2022-12-21T01:55:36.144Z,9.37
2022-12-21T01:58:05.077Z,9.43
2022-12-21T02:00:31.419Z,9.41
2022-12-21T02:03:01.685Z,9.41
2022-12-21T02:05:34.079Z,9.39
2022-12-21T02:08:03.313Z,9.41
2022-12-21T02:10:30.354Z,9.33
2022-12-21T02:13:01.841Z,9.34
2022-12-21T02:15:51.212Z,9.30
2022-12-21T02:18:39.687Z,9.34
2022-12-21T02:21:14.901Z,9.31
2022-12-21T02:23:49.054Z,9.32
2022-12-21T02:26:26.418Z,9.28
2022-12-21T02:29:12.796Z,9.32
2022-12-21T02:31:51.046Z,9.34
2022-12-21T02:34:44.699Z,9.30
2022-12-21T02:37:29.885Z,9.27
2022-12-21T02:40:01.605Z,9.27
2022-12-21T02:43:05.020Z,9.23
2022-12-21T02:45:38.405Z,9.27
2022-12-21T02:48:17.982Z,9.20
2022-12-21T02:50:50.456Z,9.18
2022-12-21T02:53:23.001Z,9.14
2022-12-21T02:55:49.369Z,9.18
2022-12-21T02:58:21.763Z,9.17
2022-12-21T03:01:07.917Z,9.15
2022-12-21T03:03:49.925Z,9.15
2022-12-21T03:06:29.991Z,9.17
2022-12-21T03:09:14.845Z,9.20
2022-12-21T03:12:07.077Z,9.20
2022-12-21T03:14:48.819Z,9.28
2022-12-21T03:17:33.539Z,9.19
2022-12-21T03:20:25.018Z,9.20
2022-12-21T03:22:58.467Z,9.16
2022-12-21T03:25:45.814Z,9.14
2022-12-21T03:28:20.298Z,9.16
2022-12-21T03:30:52.349Z,9.11
2022-12-21T03:33:23.591Z,9.16
2022-12-21T03:35:55.933Z,9.08
2022-12-21T03:38:27.406Z,9.19
2022-12-21T03:40:58.362Z,9.11
2022-12-21T03:43:30.787Z,9.11
2022-12-21T03:46:04.391Z,9.10
2022-12-21T03:48:40.184Z,9.08
2022-12-21T03:51:16.413Z,9.10
2022-12-21T03:53:51.900Z,9.14
2022-12-21T03:56:26.331Z,9.07
2022-12-21T03:58:52.711Z,9.09
2022-12-21T04:01:32.936Z,9.16
2022-12-21T04:04:06.069Z,9.15
2022-12-21T04:06:35.456Z,9.19
2022-12-21T04:09:05.285Z,9.19
2022-12-21T04:11:54.989Z,9.13
2022-12-21T04:14:21.814Z,9.10
2022-12-21T04:16:48.694Z,9.10
2022-12-21T04:19:38.016Z,9.12
2022-12-21T04:22:04.946Z,9.16
2022-12-21T04:24:50.013Z,9.17
2022-12-21T04:27:34.695Z,9.16
2022-12-21T04:30:01.051Z,9.19
2022-12-21T04:32:27.411Z,9.17
2022-12-21T04:34:53.818Z,9.15
2022-12-21T04:37:32.129Z,9.14
2022-12-21T04:39:59.628Z,9.14
2022-12-21T04:42:26.280Z,9.14
2022-12-21T04:44:52.881Z,9.11
2022-12-21T04:47:19.778Z,9.06
2022-12-21T04:49:46.752Z,9.03
2022-12-21T04:52:13.197Z,9.00
2022-12-21T04:54:39.538Z,9.03
2022-12-21T04:57:05.884Z,9.04
2022-12-21T04:59:32.251Z,9.04
2022-12-21T05:01:58.783Z,9.01
2022-12-21T05:04:25.398Z,9.09
2022-12-21T05:06:51.752Z,9.10
2022-12-21T05:11:45.965Z,9.10
2022-12-21T05:14:12.379Z,9.08
2022-12-21T05:16:41.444Z,9.09
2022-12-21T05:19:07.904Z,9.07
2022-12-21T05:21:34.395Z,9.05
2022-12-21T05:24:00.736Z,9.05
2022-12-21T05:26:27.088Z,9.09
2022-12-21T05:28:53.758Z,9.10
2022-12-21T05:31:20.444Z,9.08
2022-12-21T05:33:46.943Z,9.08
2022-12-21T05:36:15.971Z,9.10
2022-12-21T05:38:42.675Z,9.12
2022-12-21T05:41:10.544Z,9.12
2022-12-21T05:43:36.906Z,9.16
2022-12-21T05:46:05.235Z,9.18
2022-12-21T05:48:32.686Z,9.20
2022-12-21T05:50:59.284Z,9.19
2022-12-21T05:53:25.759Z,9.15
2022-12-21T05:55:52.998Z,9.08
2022-12-21T05:58:20.037Z,9.11
2022-12-21T06:00:46.991Z,9.12
2022-12-21T06:03:13.371Z,9.00
2022-12-21T06:05:39.760Z,8.98
2022-12-21T06:08:06.221Z,8.96
2022-12-21T06:10:32.566Z,8.89
2022-12-21T06:12:58.921Z,8.87
2022-12-21T06:15:25.393Z,8.82
2022-12-21T06:17:51.951Z,8.83
2022-12-21T06:20:18.463Z,8.85
2022-12-21T06:22:45.390Z,8.84
2022-12-21T06:25:11.813Z,8.85
2022-12-21T06:27:38.141Z,8.85
2022-12-21T06:30:05.329Z,8.82
2022-12-21T06:32:31.678Z,8.78
2022-12-21T06:34:58.031Z,8.73
2022-12-21T06:37:24.396Z,8.75
2022-12-21T06:39:50.731Z,8.76
2022-12-21T06:42:17.073Z,8.73
2022-12-21T06:44:43.475Z,8.71
2022-12-21T06:47:09.846Z,8.67
2022-12-21T06:49:36.214Z,8.73
2022-12-21T06:52:02.554Z,8.65
2022-12-21T06:54:28.875Z,8.64
2022-12-21T06:56:55.732Z,8.61
2022-12-21T06:59:22.097Z,8.65
2022-12-21T07:01:48.495Z,8.60
2022-12-21T07:04:15.022Z,8.59
2022-12-21T07:06:42.479Z,8.59
2022-12-21T07:09:08.866Z,8.60
2022-12-21T07:11:35.224Z,8.55
2022-12-21T07:14:01.732Z,8.54
2022-12-21T07:16:28.141Z,8.53
2022-12-21T07:18:54.737Z,8.50
2022-12-21T07:21:22.548Z,8.53
2022-12-21T07:23:49.973Z,8.54
2022-12-21T07:26:19.360Z,8.56
2022-12-21T07:28:46.916Z,8.53
2022-12-21T07:31:16.951Z,8.54
2022-12-21T07:33:43.681Z,8.54
2022-12-21T07:36:10.752Z,8.57
2022-12-21T07:38:38.950Z,8.56
2022-12-21T07:41:08.208Z,8.56
2022-12-21T07:43:35.695Z,8.55
2022-12-21T07:46:13.130Z,8.55
2022-12-21T07:48:39.556Z,8.57
2022-12-21T07:51:06.923Z,8.56
2022-12-21T07:53:34.705Z,8.54
2022-12-21T07:56:03.174Z,8.50
2022-12-21T07:58:29.530Z,8.41
2022-12-21T08:00:59.944Z,8.36
2022-12-21T08:03:29.224Z,8.36
2022-12-21T08:05:55.691Z,8.30
2022-12-21T08:08:22.009Z,8.33
2022-12-21T08:10:48.357Z,8.26
2022-12-21T08:13:14.703Z,8.26
2022-12-21T08:15:41.067Z,8.26
2022-12-21T08:18:10.635Z,8.24
2022-12-21T08:20:37.315Z,8.19
2022-12-21T08:23:03.676Z,8.15
2022-12-21T08:25:30.918Z,8.10
2022-12-21T08:27:57.260Z,8.13
2022-12-21T08:30:23.700Z,8.10
2022-12-21T08:32:50.266Z,8.12
2022-12-21T08:35:16.963Z,8.09
2022-12-21T08:37:43.277Z,8.10
2022-12-21T08:40:10.122Z,8.07
2022-12-21T08:42:36.449Z,8.10
2022-12-21T08:45:02.908Z,8.13
2022-12-21T08:47:29.269Z,8.18
2022-12-21T08:49:55.650Z,8.15
2022-12-21T08:52:22.064Z,8.09
2022-12-21T08:54:48.423Z,8.09
2022-12-21T08:57:14.751Z,8.14
2022-12-21T08:59:46.413Z,8.06
2022-12-21T09:02:15.080Z,8.12
2022-12-21T09:04:41.662Z,8.07
2022-12-21T09:07:08.094Z,8.01
2022-12-21T09:09:34.724Z,8.00
2022-12-21T09:12:01.538Z,7.94
2022-12-21T09:14:28.859Z,7.94
2022-12-21T09:16:55.380Z,7.94
2022-12-21T09:19:22.147Z,7.97
2022-12-21T09:21:48.504Z,7.96
2022-12-21T09:24:14.897Z,7.94
2022-12-21T09:26:42.168Z,7.97
2022-12-21T09:29:10.952Z,8.00
2022-12-21T09:31:37.440Z,8.05
2022-12-21T09:34:03.860Z,8.07
2022-12-21T09:36:30.370Z,8.10
2022-12-21T09:38:57.408Z,8.14
2022-12-21T09:41:30.476Z,8.09
2022-12-21T09:44:21.771Z,8.07
2022-12-21T09:46:52.191Z,8.07
2022-12-21T09:49:22.559Z,8.07
2022-12-21T09:51:58.788Z,8.08
2022-12-21T09:54:36.795Z,8.10
2022-12-21T09:57:06.922Z,8.06
2022-12-21T09:59:33.290Z,8.12
2022-12-21T10:02:34.150Z,8.10
2022-12-21T10:05:20.986Z,8.13
2022-12-21T10:08:00.795Z,8.22
2022-12-21T10:10:39.996Z,8.21
2022-12-21T10:13:41.350Z,8.24
2022-12-21T10:16:28.531Z,8.25
2022-12-21T10:19:32.905Z,8.25
2022-12-21T10:22:14.094Z,8.26
2022-12-21T10:24:54.593Z,8.29
2022-12-21T10:27:22.850Z,8.33
2022-12-21T10:29:57.786Z,8.36
2022-12-21T10:32:35.314Z,8.46
2022-12-21T10:35:28.813Z,8.56
2022-12-21T10:37:56.237Z,8.57
2022-12-21T10:40:27.562Z,8.49
2022-12-21T10:42:54.852Z,8.60
2022-12-21T10:45:26.808Z,8.51
2022-12-21T10:47:54.303Z,8.49
2022-12-21T10:50:33.321Z,8.43
2022-12-21T10:53:16.444Z,8.40
2022-12-21T10:55:44.673Z,8.31
2022-12-21T10:58:11.032Z,8.31
2022-12-21T11:00:48.533Z,8.20
2022-12-21T11:03:29.162Z,8.10
2022-12-21T11:05:56.726Z,8.09
2022-12-21T11:08:26.859Z,8.11
2022-12-21T11:10:59.593Z,8.18
2022-12-21T11:13:28.112Z,8.21
2022-12-21T11:16:13.305Z,8.26
2022-12-21T11:18:46.920Z,8.27
2022-12-21T11:21:13.215Z,8.18
2022-12-21T11:23:39.932Z,8.18
2022-12-21T11:26:16.087Z,8.16
2022-12-21T11:28:43.151Z,8.21
2022-12-21T11:31:09.895Z,8.29
2022-12-21T11:33:36.442Z,8.32
2022-12-21T11:36:12.652Z,8.42
2022-12-21T11:38:40.047Z,8.51
2022-12-21T11:41:16.626Z,8.59
2022-12-21T11:43:50.839Z,8.62
2022-12-21T11:46:49.231Z,8.65
2022-12-21T11:49:35.196Z,8.65
2022-12-21T11:52:07.406Z,8.67
2022-12-21T11:54:36.840Z,8.71
2022-12-21T11:57:06.058Z,8.72
2022-12-21T11:59:38.600Z,8.67
2022-12-21T12:02:15.088Z,8.65
2022-12-21T12:05:04.805Z,8.55
2022-12-21T12:07:55.370Z,8.46
2022-12-21T12:10:52.403Z,8.42
2022-12-21T12:13:41.533Z,8.41
2022-12-21T12:16:14.666Z,8.34
2022-12-21T12:18:58.013Z,8.39
2022-12-21T12:21:39.471Z,8.39
2022-12-21T12:24:30.487Z,8.43
2022-12-21T12:27:20.296Z,8.40
2022-12-21T12:30:13.348Z,8.39
2022-12-21T12:33:06.505Z,8.45
2022-12-21T12:35:35.553Z,8.44
2022-12-21T12:38:32.846Z,8.46
2022-12-21T12:41:22.001Z,8.44
2022-12-21T12:44:16.115Z,8.48
2022-12-21T12:47:07.491Z,8.51
2022-12-21T12:49:54.839Z,8.47
2022-12-21T12:52:54.064Z,8.44
2022-12-21T12:55:39.952Z,8.45
2022-12-21T12:58:23.381Z,8.41
2022-12-21T13:01:17.696Z,8.41
2022-12-21T13:04:17.485Z,8.45
2022-12-21T13:06:53.069Z,8.48
2022-12-21T13:09:29.285Z,8.51
2022-12-21T13:12:21.913Z,8.55
2022-12-21T13:14:57.309Z,8.56
2022-12-21T13:17:38.799Z,8.49
2022-12-21T13:20:07.160Z,8.46
2022-12-21T13:22:37.105Z,8.50
2022-12-21T13:25:19.323Z,8.44
2022-12-21T13:27:47.744Z,8.43
2022-12-21T13:30:20.287Z,8.47
2022-12-21T13:32:54.567Z,8.52
2022-12-21T13:35:35.678Z,8.47
2022-12-21T13:38:09.739Z,8.52
2022-12-21T13:40:43.064Z,8.49
2022-12-21T13:43:19.646Z,8.30
2022-12-21T13:45:55.926Z,8.32
2022-12-21T13:48:29.560Z,8.39
2022-12-21T13:51:27.079Z,8.41
2022-12-21T13:54:21.323Z,8.41
2022-12-21T13:56:53.783Z,8.39
2022-12-21T13:59:44.853Z,8.41
2022-12-21T14:02:47.563Z,8.40
2022-12-21T14:05:20.039Z,8.40
2022-12-21T14:08:04.899Z,8.43
2022-12-21T14:11:11.948Z,8.48
2022-12-21T14:13:47.473Z,8.42
2022-12-21T14:16:17.970Z,8.48
2022-12-21T14:18:45.988Z,8.50
2022-12-21T14:21:12.305Z,8.48
2022-12-21T14:23:51.103Z,8.49
2022-12-21T14:26:43.402Z,8.53
2022-12-21T14:29:36.489Z,8.53
2022-12-21T14:32:13.399Z,8.51
2022-12-21T14:34:51.737Z,8.50
2022-12-21T14:37:21.910Z,8.45
2022-12-21T14:39:48.219Z,8.39
2022-12-21T14:42:37.032Z,8.29
2022-12-21T14:45:12.812Z,8.31
2022-12-21T14:47:41.084Z,8.26
2022-12-21T14:50:19.621Z,8.19
2022-12-21T14:52:58.321Z,8.27
2022-12-21T14:55:36.940Z,8.19
2022-12-21T14:58:43.136Z,8.18
2022-12-21T15:01:13.409Z,8.10
2022-12-21T15:03:47.795Z,8.07
2022-12-21T15:06:42.923Z,8.05
2022-12-21T15:09:21.245Z,7.97
2022-12-21T15:11:55.856Z,7.96
2022-12-21T15:14:29.902Z,8.01
2022-12-21T15:17:00.713Z,7.94
2022-12-21T15:19:42.515Z,7.78
2022-12-21T15:22:33.666Z,7.78
2022-12-21T15:25:13.725Z,7.75
2022-12-21T15:27:59.142Z,7.63
2022-12-21T15:30:35.798Z,7.64
2022-12-21T15:33:15.665Z,7.64
2022-12-21T15:35:44.756Z,7.57
2022-12-21T15:38:30.194Z,7.50
2022-12-21T15:41:06.070Z,7.50
2022-12-21T15:43:57.770Z,7.43
2022-12-21T15:46:41.450Z,7.41
2022-12-21T15:49:08.699Z,7.38
2022-12-21T15:51:40.680Z,7.44
2022-12-21T15:54:17.888Z,7.44
2022-12-21T15:56:54.352Z,7.42
2022-12-21T15:59:30.191Z,7.44
2022-12-21T16:01:58.103Z,7.46
2022-12-21T16:04:27.619Z,7.51
2022-12-21T16:06:59.398Z,7.55
2022-12-21T16:09:28.338Z,7.53
2022-12-21T16:12:19.974Z,7.54
2022-12-21T16:14:41.014Z,7.54
2022-12-21T16:17:23.683Z,7.56
2022-12-21T16:19:55.326Z,7.54
2022-12-21T16:22:24.997Z,7.55
2022-12-21T16:25:29.374Z,7.55
2022-12-21T16:27:47.924Z,7.57
2022-12-21T16:30:15.115Z,7.59
2022-12-21T16:32:41.469Z,7.61
2022-12-21T16:35:19.098Z,7.64
2022-12-21T16:37:45.865Z,7.66
2022-12-21T16:40:22.105Z,7.67
2022-12-21T16:42:52.340Z,7.66
2022-12-21T16:45:21.673Z,7.72
2022-12-21T16:48:16.051Z,7.73
2022-12-21T16:50:54.448Z,7.80
2022-12-21T16:53:36.102Z,7.82
2022-12-21T16:56:17.923Z,7.83
2022-12-21T16:58:54.983Z,7.76
2022-12-21T17:01:40.336Z,7.77
2022-12-21T17:04:30.163Z,7.73
2022-12-21T17:06:59.728Z,7.78
2022-12-21T17:09:29.009Z,7.76
2022-12-21T17:12:03.142Z,7.76
2022-12-21T17:14:31.924Z,7.80
2022-12-21T17:17:19.356Z,7.84
2022-12-21T17:20:15.464Z,7.85
2022-12-21T17:22:55.679Z,7.84
2022-12-21T17:25:22.058Z,7.95
2022-12-21T17:27:59.858Z,7.98
2022-12-21T17:30:29.985Z,8.00
2022-12-21T17:32:56.709Z,7.98
2022-12-21T17:35:23.830Z,7.98
2022-12-21T17:37:54.672Z,7.97
2022-12-21T17:40:23.816Z,7.94
2022-12-21T17:42:50.582Z,7.94
2022-12-21T17:45:19.321Z,7.96
2022-12-21T17:47:47.265Z,7.99
2022-12-21T17:50:43.039Z,8.09
2022-12-21T17:53:20.859Z,8.06
2022-12-21T17:55:48.163Z,8.09
2022-12-21T17:58:14.770Z,8.07
2022-12-21T18:00:42.697Z,8.10
2022-12-21T18:03:18.594Z,8.12
2022-12-21T18:05:45.366Z,8.13
2022-12-21T18:08:13.299Z,8.13
2022-12-21T18:10:41.094Z,8.18
2022-12-21T18:13:07.764Z,8.20
2022-12-21T18:15:36.952Z,8.22
2022-12-21T18:18:07.596Z,8.35
2022-12-21T18:20:40.343Z,8.35
2022-12-21T18:23:16.151Z,8.37
2022-12-21T18:25:43.471Z,8.39
2022-12-21T18:28:15.858Z,8.42
2022-12-21T18:30:45.590Z,8.43
2022-12-21T18:33:14.961Z,8.44
2022-12-21T18:35:42.018Z,8.43
2022-12-21T18:38:16.575Z,8.33
2022-12-21T18:40:42.944Z,8.26
2022-12-21T18:43:27.579Z,8.33
2022-12-21T18:46:01.613Z,8.32
2022-12-21T18:48:29.373Z,8.26
2022-12-21T18:50:55.947Z,8.27
2022-12-21T18:53:22.794Z,8.27
2022-12-21T18:55:49.775Z,8.28
2022-12-21T18:58:16.222Z,8.26
2022-12-21T19:00:44.867Z,8.30
2022-12-21T19:03:26.209Z,8.26
2022-12-21T19:05:54.477Z,8.24
2022-12-21T19:08:22.442Z,8.19
2022-12-21T19:10:49.306Z,8.22
2022-12-21T19:13:31.001Z,8.18
2022-12-21T19:16:06.218Z,8.22
2022-12-21T19:18:40.379Z,8.24
2022-12-21T19:21:07.229Z,8.20
2022-12-21T19:23:33.697Z,8.19
2022-12-21T19:26:00.075Z,8.21
2022-12-21T19:28:26.450Z,8.17
2022-12-21T19:30:52.845Z,8.16
2022-12-21T19:33:19.394Z,8.09
2022-12-21T19:35:50.257Z,8.06
2022-12-21T19:38:23.005Z,8.03
2022-12-21T19:40:53.279Z,8.06
2022-12-21T19:43:20.416Z,7.96
2022-12-21T19:45:47.017Z,7.91
2022-12-21T19:48:37.071Z,7.89
2022-12-21T19:51:09.488Z,7.87
2022-12-21T19:53:44.741Z,7.88
2022-12-21T19:56:20.273Z,7.92
2022-12-21T19:58:48.983Z,7.86
2022-12-21T20:01:29.931Z,7.88
2022-12-21T20:03:58.334Z,7.87
2022-12-21T20:06:25.787Z,7.82
2022-12-21T20:08:52.189Z,7.82
2022-12-21T20:11:20.490Z,7.84
2022-12-21T20:13:48.692Z,7.84
2022-12-21T20:16:16.582Z,7.82
2022-12-21T20:18:43.915Z,7.81
2022-12-21T20:21:21.738Z,7.77
2022-12-21T20:23:52.145Z,7.84
2022-12-21T20:26:26.431Z,7.87
2022-12-21T20:28:56.151Z,7.79
2022-12-21T20:31:23.010Z,7.77
2022-12-21T20:33:50.955Z,7.76
2022-12-21T20:36:37.312Z,7.80
2022-12-21T20:39:12.678Z,7.82
2022-12-21T20:41:57.793Z,7.84
2022-12-21T20:44:24.410Z,7.81
2022-12-21T20:46:51.006Z,7.76
2022-12-21T20:49:24.647Z,7.81
2022-12-21T20:51:51.846Z,7.78
2022-12-21T20:54:20.513Z,7.80
2022-12-21T20:56:49.109Z,7.79
2022-12-21T20:59:16.352Z,7.81
2022-12-21T21:01:58.142Z,7.83
2022-12-21T21:04:27.757Z,7.80
2022-12-21T21:06:54.492Z,7.82
2022-12-21T21:09:31.921Z,7.85
2022-12-21T21:12:00.868Z,7.84
2022-12-21T21:14:27.290Z,7.81
2022-12-21T21:16:55.308Z,7.82
2022-12-21T21:19:43.331Z,7.81
2022-12-21T21:22:56.471Z,7.81
2022-12-21T21:25:36.136Z,7.82
2022-12-21T21:28:23.896Z,7.82
2022-12-21T21:30:53.064Z,7.81
2022-12-21T21:33:20.137Z,7.87
2022-12-21T21:35:49.784Z,7.91
2022-12-21T21:38:44.468Z,7.97
2022-12-21T21:41:32.962Z,8.03
2022-12-21T21:44:30.590Z,8.02
2022-12-21T21:46:58.977Z,8.07
2022-12-21T21:49:32.212Z,8.10
2022-12-21T21:51:58.619Z,8.17
2022-12-21T21:54:25.566Z,8.16
2022-12-21T21:56:54.589Z,8.15
2022-12-21T21:59:26.043Z,8.19
2022-12-21T22:01:55.752Z,8.26
2022-12-21T22:04:22.948Z,8.21
2022-12-21T22:06:50.456Z,8.20
2022-12-21T22:09:16.814Z,8.23
2022-12-21T22:11:46.455Z,8.24
2022-12-21T22:14:21.904Z,8.25
2022-12-21T22:19:55.322Z,8.32
2022-12-21T22:22:41.718Z,8.31
2022-12-21T22:25:35.063Z,8.32
2022-12-21T22:28:21.623Z,8.35
2022-12-21T22:31:07.117Z,8.37
2022-12-21T22:33:33.501Z,8.38
2022-12-21T22:36:18.371Z,8.46
2022-12-21T22:39:03.106Z,8.45
2022-12-21T22:41:47.933Z,8.46
2022-12-21T22:44:14.290Z,8.57
2022-12-21T22:46:40.729Z,8.56
2022-12-21T22:49:07.084Z,8.58
2022-12-21T22:51:33.512Z,8.61
2022-12-21T22:54:03.113Z,8.59
2022-12-21T22:56:34.041Z,8.54
2022-12-21T22:59:08.559Z,8.58
2022-12-21T23:01:35.691Z,8.57
2022-12-21T23:04:03.512Z,8.56
2022-12-21T23:06:30.073Z,8.55
2022-12-21T23:08:56.425Z,8.54
2022-12-21T23:11:35.104Z,8.52
2022-12-21T23:14:35.374Z,8.53
2022-12-21T23:17:05.629Z,8.50
2022-12-21T23:19:31.977Z,8.53
2022-12-21T23:22:17.110Z,8.51
2022-12-21T23:25:02.812Z,8.49
2022-12-21T23:27:53.683Z,8.45
2022-12-21T23:31:01.373Z,8.47
2022-12-21T23:33:48.709Z,8.58
2022-12-21T23:36:39.028Z,8.69
2022-12-21T23:39:41.617Z,8.66
2022-12-21T23:42:36.406Z,8.69
2022-12-21T23:45:03.163Z,8.70
2022-12-21T23:47:47.754Z,8.68
2022-12-21T23:50:32.491Z,8.75
2022-12-21T23:53:17.756Z,8.69
2022-12-21T23:56:03.041Z,8.72
2022-12-21T23:58:47.805Z,8.70
